sensor_id;sensor_type;location;lat;lon;timestamp;temperature;humidity
52125;DHT22;38119;52.710;6.398;2022-11-20T00:03:31;-1.30;99.90
52125;DHT22;38119;52.710;6.398;2022-11-20T00:06:02;-1.50;99.90
52125;DHT22;38119;52.710;6.398;2022-11-20T00:08:27;-1.40;99.90
52125;DHT22;38119;52.710;6.398;2022-11-20T00:10:53;-1.40;99.90
52125;DHT22;38119;52.710;6.398;2022-11-20T00:13:19;-1.40;99.90
52125;DHT22;38119;52.710;6.398;2022-11-20T00:15:44;-1.50;99.90
52125;DHT22;38119;52.710;6.398;2022-11-20T00:18:10;-1.50;99.90
52125;DHT22;38119;52.710;6.398;2022-11-20T00:20:35;-1.40;99.90
52125;DHT22;38119;52.710;6.398;2022-11-20T00:23:01;-1.50;99.90
52125;DHT22;38119;52.710;6.398;2022-11-20T00:25:26;-1.50;99.90
52125;DHT22;38119;52.710;6.398;2022-11-20T00:27:52;-1.60;99.90
52125;DHT22;38119;52.710;6.398;2022-11-20T00:30:18;-1.60;99.90
52125;DHT22;38119;52.710;6.398;2022-11-20T00:32:43;-1.50;99.90
52125;DHT22;38119;52.710;6.398;2022-11-20T00:35:09;-1.60;99.90
52125;DHT22;38119;52.710;6.398;2022-11-20T00:37:34;-1.50;99.90
52125;DHT22;38119;52.710;6.398;2022-11-20T00:40:00;-1.50;99.90
52125;DHT22;38119;52.710;6.398;2022-11-20T00:42:25;-1.50;99.90
52125;DHT22;38119;52.710;6.398;2022-11-20T00:44:51;-1.60;99.90
52125;DHT22;38119;52.710;6.398;2022-11-20T00:47:17;-1.60;99.90
52125;DHT22;38119;52.710;6.398;2022-11-20T00:49:43;-0.20;99.90
52125;DHT22;38119;52.710;6.398;2022-11-20T00:52:08;-1.60;99.90
52125;DHT22;38119;52.710;6.398;2022-11-20T00:54:34;-1.50;99.90
52125;DHT22;38119;52.710;6.398;2022-11-20T00:56:59;-1.20;99.90
52125;DHT22;38119;52.710;6.398;2022-11-20T00:59:25;-1.20;99.90
52125;DHT22;38119;52.710;6.398;2022-11-20T01:01:51;-1.40;99.90
52125;DHT22;38119;52.710;6.398;2022-11-20T01:04:17;-1.30;99.90
52125;DHT22;38119;52.710;6.398;2022-11-20T01:06:42;-1.40;99.90
52125;DHT22;38119;52.710;6.398;2022-11-20T01:09:11;-1.40;99.90
52125;DHT22;38119;52.710;6.398;2022-11-20T01:11:42;-0.90;99.90
52125;DHT22;38119;52.710;6.398;2022-11-20T01:14:11;-1.40;99.90
52125;DHT22;38119;52.710;6.398;2022-11-20T01:16:40;-0.50;99.90
52125;DHT22;38119;52.710;6.398;2022-11-20T01:19:09;-1.40;99.90
52125;DHT22;38119;52.710;6.398;2022-11-20T01:21:38;-1.50;99.90
52125;DHT22;38119;52.710;6.398;2022-11-20T01:24:06;-1.30;99.90
52125;DHT22;38119;52.710;6.398;2022-11-20T01:26:35;-1.50;99.90
52125;DHT22;38119;52.710;6.398;2022-11-20T01:29:02;-1.50;99.90
52125;DHT22;38119;52.710;6.398;2022-11-20T01:31:29;-1.60;99.90
52125;DHT22;38119;52.710;6.398;2022-11-20T01:33:57;-1.40;99.90
52125;DHT22;38119;52.710;6.398;2022-11-20T01:36:25;-1.60;99.90
52125;DHT22;38119;52.710;6.398;2022-11-20T01:38:56;-1.80;99.90
52125;DHT22;38119;52.710;6.398;2022-11-20T01:41:22;-1.70;99.90
52125;DHT22;38119;52.710;6.398;2022-11-20T01:44:06;-1.70;99.90
52125;DHT22;38119;52.710;6.398;2022-11-20T01:46:35;-1.60;99.90
52125;DHT22;38119;52.710;6.398;2022-11-20T01:49:18;-1.60;99.90
52125;DHT22;38119;52.710;6.398;2022-11-20T01:51:57;-1.60;99.90
52125;DHT22;38119;52.710;6.398;2022-11-20T01:54:38;-1.60;99.90
52125;DHT22;38119;52.710;6.398;2022-11-20T01:57:05;-1.60;99.90
52125;DHT22;38119;52.710;6.398;2022-11-20T01:59:33;-1.60;99.90
52125;DHT22;38119;52.710;6.398;2022-11-20T02:01:59;-1.40;99.90
52125;DHT22;38119;52.710;6.398;2022-11-20T02:04:25;-0.60;99.90
52125;DHT22;38119;52.710;6.398;2022-11-20T02:07:00;-1.60;99.90
52125;DHT22;38119;52.710;6.398;2022-11-20T02:09:27;-1.50;99.90
52125;DHT22;38119;52.710;6.398;2022-11-20T02:11:53;-1.50;99.90
52125;DHT22;38119;52.710;6.398;2022-11-20T02:14:20;-1.50;99.90
52125;DHT22;38119;52.710;6.398;2022-11-20T02:16:48;-1.50;99.90
52125;DHT22;38119;52.710;6.398;2022-11-20T02:19:28;-1.50;99.90
52125;DHT22;38119;52.710;6.398;2022-11-20T02:22:18;-2.10;99.90
52125;DHT22;38119;52.710;6.398;2022-11-20T02:24:45;-1.60;99.90
52125;DHT22;38119;52.710;6.398;2022-11-20T02:27:13;-1.50;99.90
52125;DHT22;38119;52.710;6.398;2022-11-20T02:29:44;-1.70;99.90
52125;DHT22;38119;52.710;6.398;2022-11-20T02:32:26;-1.30;99.90
52125;DHT22;38119;52.710;6.398;2022-11-20T02:34:52;-1.40;99.90
52125;DHT22;38119;52.710;6.398;2022-11-20T02:37:18;-1.40;99.90
52125;DHT22;38119;52.710;6.398;2022-11-20T02:39:46;-1.60;99.90
52125;DHT22;38119;52.710;6.398;2022-11-20T02:42:14;-1.60;99.90
52125;DHT22;38119;52.710;6.398;2022-11-20T02:44:39;-1.60;99.90
52125;DHT22;38119;52.710;6.398;2022-11-20T02:47:06;-1.60;99.90
52125;DHT22;38119;52.710;6.398;2022-11-20T02:49:32;-1.60;99.90
52125;DHT22;38119;52.710;6.398;2022-11-20T02:51:58;-1.60;99.90
52125;DHT22;38119;52.710;6.398;2022-11-20T02:54:24;-1.60;99.90
52125;DHT22;38119;52.710;6.398;2022-11-20T02:56:50;-1.60;99.90
52125;DHT22;38119;52.710;6.398;2022-11-20T02:59:18;-1.40;99.90
52125;DHT22;38119;52.710;6.398;2022-11-20T03:01:44;-1.70;99.90
52125;DHT22;38119;52.710;6.398;2022-11-20T03:04:09;-1.80;99.90
52125;DHT22;38119;52.710;6.398;2022-11-20T03:06:35;-1.60;99.90
52125;DHT22;38119;52.710;6.398;2022-11-20T03:09:01;-1.70;99.90
52125;DHT22;38119;52.710;6.398;2022-11-20T03:11:27;-1.70;99.90
52125;DHT22;38119;52.710;6.398;2022-11-20T03:13:53;-1.70;99.90
52125;DHT22;38119;52.710;6.398;2022-11-20T03:16:20;-1.70;99.90
52125;DHT22;38119;52.710;6.398;2022-11-20T03:18:46;-1.60;99.90
52125;DHT22;38119;52.710;6.398;2022-11-20T03:21:13;-1.80;99.90
52125;DHT22;38119;52.710;6.398;2022-11-20T03:23:42;-1.00;99.90
52125;DHT22;38119;52.710;6.398;2022-11-20T03:26:17;-1.70;99.90
52125;DHT22;38119;52.710;6.398;2022-11-20T03:28:50;-2.00;99.90
52125;DHT22;38119;52.710;6.398;2022-11-20T03:31:22;-1.70;99.90
52125;DHT22;38119;52.710;6.398;2022-11-20T03:33:48;-1.70;99.90
52125;DHT22;38119;52.710;6.398;2022-11-20T03:36:17;-1.60;99.90
52125;DHT22;38119;52.710;6.398;2022-11-20T03:38:43;-1.60;99.90
52125;DHT22;38119;52.710;6.398;2022-11-20T03:41:14;-0.90;99.90
52125;DHT22;38119;52.710;6.398;2022-11-20T03:43:50;-1.60;99.90
52125;DHT22;38119;52.710;6.398;2022-11-20T03:46:15;-1.50;99.90
52125;DHT22;38119;52.710;6.398;2022-11-20T03:48:42;-1.20;99.90
52125;DHT22;38119;52.710;6.398;2022-11-20T03:51:19;-1.60;99.90
52125;DHT22;38119;52.710;6.398;2022-11-20T03:53:47;-1.50;99.90
52125;DHT22;38119;52.710;6.398;2022-11-20T03:56:16;-1.40;99.90
52125;DHT22;38119;52.710;6.398;2022-11-20T03:58:42;-1.50;99.90
52125;DHT22;38119;52.710;6.398;2022-11-20T04:01:13;-1.50;99.90
52125;DHT22;38119;52.710;6.398;2022-11-20T04:03:40;-1.50;99.90
52125;DHT22;38119;52.710;6.398;2022-11-20T04:06:17;-1.50;99.90
52125;DHT22;38119;52.710;6.398;2022-11-20T04:08:43;-1.40;99.90
52125;DHT22;38119;52.710;6.398;2022-11-20T04:13:34;-1.30;99.90
52125;DHT22;38119;52.710;6.398;2022-11-20T04:16:00;-0.60;99.90
52125;DHT22;38119;52.710;6.398;2022-11-20T04:18:25;-1.40;99.90
52125;DHT22;38119;52.710;6.398;2022-11-20T04:20:51;-1.40;99.90
52125;DHT22;38119;52.710;6.398;2022-11-20T04:23:17;-1.40;99.90
52125;DHT22;38119;52.710;6.398;2022-11-20T04:25:42;-1.30;99.90
52125;DHT22;38119;52.710;6.398;2022-11-20T04:28:08;-1.20;99.90
52125;DHT22;38119;52.710;6.398;2022-11-20T04:30:34;-1.40;99.90
52125;DHT22;38119;52.710;6.398;2022-11-20T04:32:59;-1.40;99.90
52125;DHT22;38119;52.710;6.398;2022-11-20T04:35:26;-1.30;99.90
52125;DHT22;38119;52.710;6.398;2022-11-20T04:37:53;-1.40;99.90
52125;DHT22;38119;52.710;6.398;2022-11-20T04:40:19;-1.50;99.90
52125;DHT22;38119;52.710;6.398;2022-11-20T04:42:44;-1.60;99.90
52125;DHT22;38119;52.710;6.398;2022-11-20T04:45:10;-1.30;99.90
52125;DHT22;38119;52.710;6.398;2022-11-20T04:47:41;-2.30;99.90
52125;DHT22;38119;52.710;6.398;2022-11-20T04:50:06;-1.40;99.90
52125;DHT22;38119;52.710;6.398;2022-11-20T04:52:32;-1.40;99.90
52125;DHT22;38119;52.710;6.398;2022-11-20T04:54:58;-1.50;99.90
52125;DHT22;38119;52.710;6.398;2022-11-20T04:57:23;-1.40;99.90
52125;DHT22;38119;52.710;6.398;2022-11-20T04:59:49;-1.50;99.90
52125;DHT22;38119;52.710;6.398;2022-11-20T05:02:14;-1.40;99.90
52125;DHT22;38119;52.710;6.398;2022-11-20T05:04:40;-1.40;99.90
52125;DHT22;38119;52.710;6.398;2022-11-20T05:07:05;-1.40;99.90
52125;DHT22;38119;52.710;6.398;2022-11-20T05:09:31;-1.40;99.90
52125;DHT22;38119;52.710;6.398;2022-11-20T05:11:57;-1.50;99.90
52125;DHT22;38119;52.710;6.398;2022-11-20T05:14:22;-1.40;99.90
52125;DHT22;38119;52.710;6.398;2022-11-20T05:16:50;-0.30;99.90
52125;DHT22;38119;52.710;6.398;2022-11-20T05:19:15;-1.40;99.90
52125;DHT22;38119;52.710;6.398;2022-11-20T05:21:41;-1.40;99.90
52125;DHT22;38119;52.710;6.398;2022-11-20T05:24:07;-1.20;99.90
52125;DHT22;38119;52.710;6.398;2022-11-20T05:26:32;-1.40;99.90
52125;DHT22;38119;52.710;6.398;2022-11-20T05:28:58;-1.40;99.90
52125;DHT22;38119;52.710;6.398;2022-11-20T05:31:24;-1.40;99.90
52125;DHT22;38119;52.710;6.398;2022-11-20T05:33:50;-1.40;99.90
52125;DHT22;38119;52.710;6.398;2022-11-20T05:36:21;-1.40;99.90
52125;DHT22;38119;52.710;6.398;2022-11-20T05:38:51;-1.40;99.90
52125;DHT22;38119;52.710;6.398;2022-11-20T05:41:19;-1.40;99.90
52125;DHT22;38119;52.710;6.398;2022-11-20T05:43:47;-1.40;99.90
52125;DHT22;38119;52.710;6.398;2022-11-20T05:46:14;-1.50;99.90
52125;DHT22;38119;52.710;6.398;2022-11-20T05:48:41;-1.50;99.90
52125;DHT22;38119;52.710;6.398;2022-11-20T05:51:10;-1.60;99.90
52125;DHT22;38119;52.710;6.398;2022-11-20T05:53:36;-1.50;99.90
52125;DHT22;38119;52.710;6.398;2022-11-20T05:58:36;-1.40;99.90
52125;DHT22;38119;52.710;6.398;2022-11-20T06:01:15;-1.50;99.90
52125;DHT22;38119;52.710;6.398;2022-11-20T06:03:42;-1.50;99.90
52125;DHT22;38119;52.710;6.398;2022-11-20T06:06:11;-1.50;99.90
52125;DHT22;38119;52.710;6.398;2022-11-20T06:08:40;-1.50;99.90
52125;DHT22;38119;52.710;6.398;2022-11-20T06:11:22;-1.40;99.90
52125;DHT22;38119;52.710;6.398;2022-11-20T06:13:51;-1.30;99.90
52125;DHT22;38119;52.710;6.398;2022-11-20T06:16:19;-1.40;99.90
52125;DHT22;38119;52.710;6.398;2022-11-20T06:18:52;-1.40;99.90
52125;DHT22;38119;52.710;6.398;2022-11-20T06:21:20;-1.40;99.90
52125;DHT22;38119;52.710;6.398;2022-11-20T06:23:47;-1.20;99.90
52125;DHT22;38119;52.710;6.398;2022-11-20T06:26:18;-1.40;99.90
52125;DHT22;38119;52.710;6.398;2022-11-20T06:28:47;-1.20;99.90
52125;DHT22;38119;52.710;6.398;2022-11-20T06:31:15;-1.20;99.90
52125;DHT22;38119;52.710;6.398;2022-11-20T06:33:42;-1.20;99.90
52125;DHT22;38119;52.710;6.398;2022-11-20T06:36:10;-1.20;99.90
52125;DHT22;38119;52.710;6.398;2022-11-20T06:38:36;0.60;99.90
52125;DHT22;38119;52.710;6.398;2022-11-20T06:41:03;-1.10;99.90
52125;DHT22;38119;52.710;6.398;2022-11-20T06:43:29;-1.20;99.90
52125;DHT22;38119;52.710;6.398;2022-11-20T06:45:56;-1.10;99.90
52125;DHT22;38119;52.710;6.398;2022-11-20T06:48:23;-1.10;99.90
52125;DHT22;38119;52.710;6.398;2022-11-20T06:50:49;-0.80;99.90
52125;DHT22;38119;52.710;6.398;2022-11-20T06:53:21;-1.20;99.90
52125;DHT22;38119;52.710;6.398;2022-11-20T06:55:47;-1.00;99.90
52125;DHT22;38119;52.710;6.398;2022-11-20T06:58:14;-1.10;99.90
52125;DHT22;38119;52.710;6.398;2022-11-20T07:00:40;-0.80;99.90
52125;DHT22;38119;52.710;6.398;2022-11-20T07:03:11;-0.90;99.90
52125;DHT22;38119;52.710;6.398;2022-11-20T07:05:37;-0.90;99.90
52125;DHT22;38119;52.710;6.398;2022-11-20T07:08:03;-0.90;99.90
52125;DHT22;38119;52.710;6.398;2022-11-20T07:10:30;-0.90;99.90
52125;DHT22;38119;52.710;6.398;2022-11-20T07:12:55;-0.90;99.90
52125;DHT22;38119;52.710;6.398;2022-11-20T07:15:22;-0.90;99.90
52125;DHT22;38119;52.710;6.398;2022-11-20T07:17:51;-0.80;99.90
52125;DHT22;38119;52.710;6.398;2022-11-20T07:20:17;-0.80;99.90
52125;DHT22;38119;52.710;6.398;2022-11-20T07:22:43;-0.70;99.90
52125;DHT22;38119;52.710;6.398;2022-11-20T07:25:09;-0.70;99.90
52125;DHT22;38119;52.710;6.398;2022-11-20T07:27:41;-0.80;99.90
52125;DHT22;38119;52.710;6.398;2022-11-20T07:30:14;0.60;99.90
52125;DHT22;38119;52.710;6.398;2022-11-20T07:32:40;-0.80;99.90
52125;DHT22;38119;52.710;6.398;2022-11-20T07:35:06;-0.90;99.90
52125;DHT22;38119;52.710;6.398;2022-11-20T07:37:35;-0.60;99.90
52125;DHT22;38119;52.710;6.398;2022-11-20T07:40:01;-0.80;99.90
52125;DHT22;38119;52.710;6.398;2022-11-20T07:42:26;0.70;99.90
52125;DHT22;38119;52.710;6.398;2022-11-20T07:44:52;-0.70;99.90
52125;DHT22;38119;52.710;6.398;2022-11-20T07:47:18;-0.40;99.90
52125;DHT22;38119;52.710;6.398;2022-11-20T07:49:43;-0.70;99.90
52125;DHT22;38119;52.710;6.398;2022-11-20T07:52:09;0.00;99.90
52125;DHT22;38119;52.710;6.398;2022-11-20T07:54:34;-0.70;99.90
52125;DHT22;38119;52.710;6.398;2022-11-20T07:57:00;-0.60;99.90
52125;DHT22;38119;52.710;6.398;2022-11-20T07:59:25;-0.70;99.90
52125;DHT22;38119;52.710;6.398;2022-11-20T08:01:51;-0.30;99.90
52125;DHT22;38119;52.710;6.398;2022-11-20T08:04:16;-0.70;99.90
52125;DHT22;38119;52.710;6.398;2022-11-20T08:06:42;-0.60;99.90
52125;DHT22;38119;52.710;6.398;2022-11-20T08:09:08;-0.70;99.90
52125;DHT22;38119;52.710;6.398;2022-11-20T08:11:33;-1.40;99.90
52125;DHT22;38119;52.710;6.398;2022-11-20T08:14:17;-0.60;99.90
52125;DHT22;38119;52.710;6.398;2022-11-20T08:16:46;-0.30;99.90
52125;DHT22;38119;52.710;6.398;2022-11-20T08:19:12;-0.50;99.90
52125;DHT22;38119;52.710;6.398;2022-11-20T08:21:39;-0.40;99.90
52125;DHT22;38119;52.710;6.398;2022-11-20T08:24:05;-0.60;99.90
52125;DHT22;38119;52.710;6.398;2022-11-20T08:26:31;-0.50;99.90
52125;DHT22;38119;52.710;6.398;2022-11-20T08:28:57;-0.50;99.90
52125;DHT22;38119;52.710;6.398;2022-11-20T08:31:24;2.00;99.90
52125;DHT22;38119;52.710;6.398;2022-11-20T08:33:50;-0.40;99.90
52125;DHT22;38119;52.710;6.398;2022-11-20T08:36:17;-0.50;99.90
52125;DHT22;38119;52.710;6.398;2022-11-20T08:38:47;-0.50;99.90
52125;DHT22;38119;52.710;6.398;2022-11-20T08:41:13;-0.50;99.90
52125;DHT22;38119;52.710;6.398;2022-11-20T08:44:01;0.10;99.90
52125;DHT22;38119;52.710;6.398;2022-11-20T08:46:38;-0.20;99.90
52125;DHT22;38119;52.710;6.398;2022-11-20T08:49:10;-0.30;99.90
52125;DHT22;38119;52.710;6.398;2022-11-20T08:51:36;-0.30;99.90
52125;DHT22;38119;52.710;6.398;2022-11-20T08:54:02;-0.40;99.90
52125;DHT22;38119;52.710;6.398;2022-11-20T08:56:28;-0.20;99.90
52125;DHT22;38119;52.710;6.398;2022-11-20T08:58:54;0.80;99.90
52125;DHT22;38119;52.710;6.398;2022-11-20T09:01:20;-0.40;99.90
52125;DHT22;38119;52.710;6.398;2022-11-20T09:03:46;-0.30;99.90
52125;DHT22;38119;52.710;6.398;2022-11-20T09:06:12;-0.40;99.90
52125;DHT22;38119;52.710;6.398;2022-11-20T09:08:38;-0.40;99.90
52125;DHT22;38119;52.710;6.398;2022-11-20T09:11:04;-0.40;99.90
52125;DHT22;38119;52.710;6.398;2022-11-20T09:13:31;-0.40;99.90
52125;DHT22;38119;52.710;6.398;2022-11-20T09:15:59;-0.30;99.90
52125;DHT22;38119;52.710;6.398;2022-11-20T09:18:26;0.70;99.90
52125;DHT22;38119;52.710;6.398;2022-11-20T09:20:56;-0.50;99.90
52125;DHT22;38119;52.710;6.398;2022-11-20T09:23:22;-0.40;99.90
52125;DHT22;38119;52.710;6.398;2022-11-20T09:25:48;0.10;99.90
52125;DHT22;38119;52.710;6.398;2022-11-20T09:28:14;-0.30;99.90
52125;DHT22;38119;52.710;6.398;2022-11-20T09:30:39;-0.50;99.90
52125;DHT22;38119;52.710;6.398;2022-11-20T09:33:05;-0.40;99.90
52125;DHT22;38119;52.710;6.398;2022-11-20T09:35:32;-0.40;99.90
52125;DHT22;38119;52.710;6.398;2022-11-20T09:37:58;-0.40;99.90
52125;DHT22;38119;52.710;6.398;2022-11-20T09:40:28;-0.30;99.90
52125;DHT22;38119;52.710;6.398;2022-11-20T09:51:29;-0.20;99.90
52125;DHT22;38119;52.710;6.398;2022-11-20T09:56:28;-0.20;99.90
52125;DHT22;38119;52.710;6.398;2022-11-20T09:59:02;-0.20;99.90
52125;DHT22;38119;52.710;6.398;2022-11-20T10:01:35;-0.10;99.90
52125;DHT22;38119;52.710;6.398;2022-11-20T10:04:10;0.00;99.90
52125;DHT22;38119;52.710;6.398;2022-11-20T10:07:03;0.00;99.90
52125;DHT22;38119;52.710;6.398;2022-11-20T10:09:36;0.00;99.90
52125;DHT22;38119;52.710;6.398;2022-11-20T10:12:12;0.80;99.90
52125;DHT22;38119;52.710;6.398;2022-11-20T10:15:05;0.10;99.90
52125;DHT22;38119;52.710;6.398;2022-11-20T10:20:43;0.20;99.90
52125;DHT22;38119;52.710;6.398;2022-11-20T10:26:02;0.20;99.90
52125;DHT22;38119;52.710;6.398;2022-11-20T10:31:44;0.20;99.90
52125;DHT22;38119;52.710;6.398;2022-11-20T10:34:46;0.30;99.90
52125;DHT22;38119;52.710;6.398;2022-11-20T10:37:25;0.30;99.90
52125;DHT22;38119;52.710;6.398;2022-11-20T10:42:43;0.30;99.90
52125;DHT22;38119;52.710;6.398;2022-11-20T10:48:01;0.40;99.90
52125;DHT22;38119;52.710;6.398;2022-11-20T10:50:35;1.50;99.90
52125;DHT22;38119;52.710;6.398;2022-11-20T10:53:24;0.40;99.90
52125;DHT22;38119;52.710;6.398;2022-11-20T10:55:57;0.50;99.90
52125;DHT22;38119;52.710;6.398;2022-11-20T10:58:40;1.00;99.90
52125;DHT22;38119;52.710;6.398;2022-11-20T11:01:18;0.60;99.90
52125;DHT22;38119;52.710;6.398;2022-11-20T11:03:44;0.70;99.90
52125;DHT22;38119;52.710;6.398;2022-11-20T11:08:43;2.20;99.90
52125;DHT22;38119;52.710;6.398;2022-11-20T11:11:22;0.70;99.90
52125;DHT22;38119;52.710;6.398;2022-11-20T11:13:48;0.90;99.90
52125;DHT22;38119;52.710;6.398;2022-11-20T11:16:25;0.90;99.90
52125;DHT22;38119;52.710;6.398;2022-11-20T11:18:51;1.00;99.90
52125;DHT22;38119;52.710;6.398;2022-11-20T11:21:24;1.00;99.90
52125;DHT22;38119;52.710;6.398;2022-11-20T11:23:59;1.10;99.90
52125;DHT22;38119;52.710;6.398;2022-11-20T11:26:25;1.30;99.90
52125;DHT22;38119;52.710;6.398;2022-11-20T11:29:04;1.20;99.90
52125;DHT22;38119;52.710;6.398;2022-11-20T11:31:34;1.30;99.90
52125;DHT22;38119;52.710;6.398;2022-11-20T11:36:33;1.40;99.90
52125;DHT22;38119;52.710;6.398;2022-11-20T11:39:00;1.50;99.90
52125;DHT22;38119;52.710;6.398;2022-11-20T11:41:31;1.50;99.90
52125;DHT22;38119;52.710;6.398;2022-11-20T11:44:03;1.30;99.90
52125;DHT22;38119;52.710;6.398;2022-11-20T11:46:58;1.60;99.90
52125;DHT22;38119;52.710;6.398;2022-11-20T11:49:24;1.60;99.90
52125;DHT22;38119;52.710;6.398;2022-11-20T11:54:56;1.70;99.90
52125;DHT22;38119;52.710;6.398;2022-11-20T11:57:41;1.80;99.90
52125;DHT22;38119;52.710;6.398;2022-11-20T12:00:14;1.90;99.90
52125;DHT22;38119;52.710;6.398;2022-11-20T12:07:59;2.40;99.90
52125;DHT22;38119;52.710;6.398;2022-11-20T12:16:01;2.30;99.90
52125;DHT22;38119;52.710;6.398;2022-11-20T12:18:30;2.20;99.90
52125;DHT22;38119;52.710;6.398;2022-11-20T12:21:38;2.30;99.90
52125;DHT22;38119;52.710;6.398;2022-11-20T12:26:58;2.30;99.90
52125;DHT22;38119;52.710;6.398;2022-11-20T12:32:31;2.30;99.90
52125;DHT22;38119;52.710;6.398;2022-11-20T12:35:22;2.30;99.90
52125;DHT22;38119;52.710;6.398;2022-11-20T12:40:46;2.60;99.90
52125;DHT22;38119;52.710;6.398;2022-11-20T12:43:25;2.30;99.90
52125;DHT22;38119;52.710;6.398;2022-11-20T12:46:36;2.30;99.90
52125;DHT22;38119;52.710;6.398;2022-11-20T12:49:27;3.10;99.90
52125;DHT22;38119;52.710;6.398;2022-11-20T13:00:15;2.40;99.90
52125;DHT22;38119;52.710;6.398;2022-11-20T13:05:32;2.40;99.90
52125;DHT22;38119;52.710;6.398;2022-11-20T13:08:02;2.40;99.90
52125;DHT22;38119;52.710;6.398;2022-11-20T13:10:39;3.10;99.90
52125;DHT22;38119;52.710;6.398;2022-11-20T13:13:16;2.40;99.90
52125;DHT22;38119;52.710;6.398;2022-11-20T13:16:07;2.40;99.90
52125;DHT22;38119;52.710;6.398;2022-11-20T13:18:38;2.40;99.90
52125;DHT22;38119;52.710;6.398;2022-11-20T13:21:14;2.30;99.90
52125;DHT22;38119;52.710;6.398;2022-11-20T13:23:40;2.30;99.90
52125;DHT22;38119;52.710;6.398;2022-11-20T13:26:18;2.30;99.90
52125;DHT22;38119;52.710;6.398;2022-11-20T13:28:46;2.30;99.90
52125;DHT22;38119;52.710;6.398;2022-11-20T13:31:30;2.30;99.90
52125;DHT22;38119;52.710;6.398;2022-11-20T13:33:57;2.40;99.90
52125;DHT22;38119;52.710;6.398;2022-11-20T13:36:26;2.30;99.90
52125;DHT22;38119;52.710;6.398;2022-11-20T13:38:54;2.30;99.90
52125;DHT22;38119;52.710;6.398;2022-11-20T13:41:32;2.40;99.90
52125;DHT22;38119;52.710;6.398;2022-11-20T13:49:44;2.40;99.90
52125;DHT22;38119;52.710;6.398;2022-11-20T13:57:54;2.40;99.90
52125;DHT22;38119;52.710;6.398;2022-11-20T14:00:24;2.40;99.90
52125;DHT22;38119;52.710;6.398;2022-11-20T14:03:20;2.30;99.90
52125;DHT22;38119;52.710;6.398;2022-11-20T14:05:54;2.30;99.90
52125;DHT22;38119;52.710;6.398;2022-11-20T14:08:37;2.20;99.90
52125;DHT22;38119;52.710;6.398;2022-11-20T14:13:39;2.30;99.90
52125;DHT22;38119;52.710;6.398;2022-11-20T14:16:05;2.30;99.90
52125;DHT22;38119;52.710;6.398;2022-11-20T14:18:30;2.20;99.90
52125;DHT22;38119;52.710;6.398;2022-11-20T14:21:00;2.30;99.90
52125;DHT22;38119;52.710;6.398;2022-11-20T14:23:27;2.30;99.90
52125;DHT22;38119;52.710;6.398;2022-11-20T14:25:53;2.30;99.90
52125;DHT22;38119;52.710;6.398;2022-11-20T14:28:28;2.30;99.90
52125;DHT22;38119;52.710;6.398;2022-11-20T14:30:54;2.30;99.90
52125;DHT22;38119;52.710;6.398;2022-11-20T14:33:21;2.30;99.90
52125;DHT22;38119;52.710;6.398;2022-11-20T14:35:53;2.30;99.90
52125;DHT22;38119;52.710;6.398;2022-11-20T14:38:24;2.20;99.90
52125;DHT22;38119;52.710;6.398;2022-11-20T14:40:50;2.30;99.90
52125;DHT22;38119;52.710;6.398;2022-11-20T14:43:25;2.20;99.90
52125;DHT22;38119;52.710;6.398;2022-11-20T14:46:00;2.30;99.90
52125;DHT22;38119;52.710;6.398;2022-11-20T14:48:41;2.30;99.90
52125;DHT22;38119;52.710;6.398;2022-11-20T14:51:32;2.30;99.90
52125;DHT22;38119;52.710;6.398;2022-11-20T14:56:34;2.30;99.90
52125;DHT22;38119;52.710;6.398;2022-11-20T14:58:59;2.30;99.90
52125;DHT22;38119;52.710;6.398;2022-11-20T15:01:27;2.30;99.90
52125;DHT22;38119;52.710;6.398;2022-11-20T15:04:09;2.20;99.90
52125;DHT22;38119;52.710;6.398;2022-11-20T15:06:35;2.30;99.90
52125;DHT22;38119;52.710;6.398;2022-11-20T15:09:12;2.20;99.90
52125;DHT22;38119;52.710;6.398;2022-11-20T15:11:38;2.30;99.90
52125;DHT22;38119;52.710;6.398;2022-11-20T15:14:06;2.20;99.90
52125;DHT22;38119;52.710;6.398;2022-11-20T15:16:32;2.20;99.90
52125;DHT22;38119;52.710;6.398;2022-11-20T15:18:58;2.20;99.90
52125;DHT22;38119;52.710;6.398;2022-11-20T15:21:25;2.30;99.90
52125;DHT22;38119;52.710;6.398;2022-11-20T15:23:50;2.20;99.90
52125;DHT22;38119;52.710;6.398;2022-11-20T15:26:25;2.20;99.90
52125;DHT22;38119;52.710;6.398;2022-11-20T15:28:51;2.30;99.90
52125;DHT22;38119;52.710;6.398;2022-11-20T15:31:20;2.20;99.90
52125;DHT22;38119;52.710;6.398;2022-11-20T15:33:46;2.20;99.90
52125;DHT22;38119;52.710;6.398;2022-11-20T15:36:12;2.20;99.90
52125;DHT22;38119;52.710;6.398;2022-11-20T15:38:38;2.20;99.90
52125;DHT22;38119;52.710;6.398;2022-11-20T15:41:04;2.30;99.90
52125;DHT22;38119;52.710;6.398;2022-11-20T15:43:30;2.20;99.90
52125;DHT22;38119;52.710;6.398;2022-11-20T15:45:59;2.20;99.90
52125;DHT22;38119;52.710;6.398;2022-11-20T15:48:27;2.20;99.90
52125;DHT22;38119;52.710;6.398;2022-11-20T15:51:14;2.10;99.90
52125;DHT22;38119;52.710;6.398;2022-11-20T15:53:43;2.30;99.90
52125;DHT22;38119;52.710;6.398;2022-11-20T15:56:11;2.20;99.90
52125;DHT22;38119;52.710;6.398;2022-11-20T15:58:37;2.20;99.90
52125;DHT22;38119;52.710;6.398;2022-11-20T16:01:03;2.20;99.90
52125;DHT22;38119;52.710;6.398;2022-11-20T16:03:28;2.30;99.90
52125;DHT22;38119;52.710;6.398;2022-11-20T16:05:55;2.30;99.90
52125;DHT22;38119;52.710;6.398;2022-11-20T16:08:21;2.30;99.90
52125;DHT22;38119;52.710;6.398;2022-11-20T16:10:46;2.20;99.90
52125;DHT22;38119;52.710;6.398;2022-11-20T16:13:17;2.20;99.90
52125;DHT22;38119;52.710;6.398;2022-11-20T16:16:07;2.20;99.90
52125;DHT22;38119;52.710;6.398;2022-11-20T16:18:35;2.30;99.90
52125;DHT22;38119;52.710;6.398;2022-11-20T16:21:01;2.30;99.90
52125;DHT22;38119;52.710;6.398;2022-11-20T16:23:26;2.30;99.90
52125;DHT22;38119;52.710;6.398;2022-11-20T16:25:52;2.20;99.90
52125;DHT22;38119;52.710;6.398;2022-11-20T16:28:17;2.30;99.90
52125;DHT22;38119;52.710;6.398;2022-11-20T16:30:43;2.30;99.90
52125;DHT22;38119;52.710;6.398;2022-11-20T16:33:15;2.30;99.90
52125;DHT22;38119;52.710;6.398;2022-11-20T16:35:42;2.40;99.90
52125;DHT22;38119;52.710;6.398;2022-11-20T16:38:08;2.30;99.90
52125;DHT22;38119;52.710;6.398;2022-11-20T16:40:34;2.40;99.90
52125;DHT22;38119;52.710;6.398;2022-11-20T16:43:08;2.40;99.90
52125;DHT22;38119;52.710;6.398;2022-11-20T16:45:37;2.30;99.90
52125;DHT22;38119;52.710;6.398;2022-11-20T16:48:05;2.30;99.90
52125;DHT22;38119;52.710;6.398;2022-11-20T16:50:30;2.40;99.90
52125;DHT22;38119;52.710;6.398;2022-11-20T16:52:56;2.30;99.90
52125;DHT22;38119;52.710;6.398;2022-11-20T16:55:21;2.30;99.90
52125;DHT22;38119;52.710;6.398;2022-11-20T16:57:47;2.40;99.90
52125;DHT22;38119;52.710;6.398;2022-11-20T17:00:13;2.20;99.90
52125;DHT22;38119;52.710;6.398;2022-11-20T17:02:39;2.40;99.90
52125;DHT22;38119;52.710;6.398;2022-11-20T17:05:05;2.30;99.90
52125;DHT22;38119;52.710;6.398;2022-11-20T17:07:30;2.40;99.90
52125;DHT22;38119;52.710;6.398;2022-11-20T17:09:56;2.40;99.90
52125;DHT22;38119;52.710;6.398;2022-11-20T17:12:34;2.20;99.90
52125;DHT22;38119;52.710;6.398;2022-11-20T17:15:00;2.30;99.90
52125;DHT22;38119;52.710;6.398;2022-11-20T17:17:25;2.40;99.90
52125;DHT22;38119;52.710;6.398;2022-11-20T17:19:51;2.40;99.90